Amory, MS (38821)

6:27 AM CST on December 07, 2016 (GMT -0600)
Amory | | Change Station

Elev 233 ft 33.98 °N, 88.49 °W | Updated 0 second ago

Overcast
Overcast
43.2 °F
Feels Like 41 °F
N
4.0
Wind Variable Wind from NE
Gusts 9.0 mph

Today
High -- | Low -- °F
--% Chance of Precip.
Yesterday
High -- | Low -- °F
Precip. -- in
Pressure 30.10 in
Visibility 10.0 miles
Clouds Overcast 2400 ft
Windchill 41 °F
Dew Point 41 °F
Humidity 91%
Rainfall 0.00 in
Snow Depth Not available.
6:46 AM 4:44 PM
First Quarter, 52% visible
METAR KCBM 071158Z AUTO 35006KT 10SM OVC024 07/05 A3009 RMK AO2 SLP193 70001 T00710053 10089 20071 53009 $
Pressure 30.10 in
Visibility 10.0 miles
Clouds Overcast 2400 ft
Windchill 41 °F
Dew Point 41 °F
Humidity 91%
Rainfall 0.00 in
Snow Depth Not available.
6:46 AM 4:44 PM
First Quarter, 52% visible
METAR KCBM 071158Z AUTO 35006KT 10SM OVC024 07/05 A3009 RMK AO2 SLP193 70001 T00710053 10089 20071 53009 $

10-Day Weather Forecast

Almanac

Astronomy

Dec. 07, 2016 Rise Set
Actual Time
Civil Twilight
Nautical Twilight
Astronomical Twilight
Moon
Length of Visible Light
Length of Day
Tomorrow will be .
, % of the Moon is Illuminated

Today's Extremes

State Highs State Lows

Community

WunderPhotos

Upload Photos

1,956,111 photos uploaded!

WunderBlog® & News

Nearby

Air Quality

  Air Quality AQ Index Pollutant
Not available.

Snow Depth

Station Depth Elevation

Earthquake Activity

City Distance Mag. Time & Date
Minimum magnitude displayed is 2.5.

Coastal Water Temperatures

Place Temperature

Stations

Nearby Weather Stations

Station Location Temp. Windchill Dew Point Humidity Wind Precip. Elev Updated Type
                   

Watches & Warnings

There are currently no watches in effect.